Time,TemperatureF,DewpointF,PressureIn,WindDirection,WindDirectionDegrees,WindSpeedMPH,WindSpeedGustMPH,Humidity,HourlyPrecipIn,Conditions,Clouds,dailyrainin,SoftwareType,DateUTC
2013-02-23 00:14:00,39.7,39.2,29.99,ESE,112,1.7,-999.0,98,-99.99,,,0.00,Acu-Link.com,2013-02-23 05:14:00,
2013-02-23 00:29:00,39.7,39.2,29.99,NE,45,0.0,-999.0,98,-99.99,,,0.02,Acu-Link.com,2013-02-23 05:29:00,
2013-02-23 00:44:00,39.7,39.2,29.98,ESE,112,3.7,-999.0,98,-99.99,,,0.02,Acu-Link.com,2013-02-23 05:44:00,
2013-02-23 01:15:00,39.6,39.1,29.96,NE,45,1.1,-999.0,98,-99.99,,,0.04,Acu-Link.com,2013-02-23 06:15:00,
2013-02-23 01:30:00,39.6,39.1,29.95,NE,45,2.2,-999.0,98,-99.99,,,0.07,Acu-Link.com,2013-02-23 06:30:00,
2013-02-23 01:45:00,39.6,39.1,29.95,WNW,292,1.1,-999.0,98,-99.99,,,0.07,Acu-Link.com,2013-02-23 06:45:00,
2013-02-23 02:00:00,39.6,39.1,29.93,NE,45,2.2,-999.0,98,-99.99,,,0.07,Acu-Link.com,2013-02-23 07:00:00,
2013-02-23 02:16:00,39.6,39.1,29.93,WNW,292,0.0,-999.0,98,-99.99,,,0.07,Acu-Link.com,2013-02-23 07:16:00,
2013-02-23 02:31:00,39.6,39.1,29.94,SSW,202,2.2,-999.0,98,-99.99,,,0.07,Acu-Link.com,2013-02-23 07:31:00,
2013-02-23 02:46:00,39.6,39.1,29.94,South,180,0.0,-999.0,98,-99.99,,,0.14,Acu-Link.com,2013-02-23 07:46:00,
2013-02-23 03:01:00,39.6,39.1,29.93,East,90,2.2,-999.0,98,-99.99,,,0.16,Acu-Link.com,2013-02-23 08:01:00,
2013-02-23 03:16:00,39.6,39.1,29.92,ESE,112,0.0,-999.0,98,-99.99,,,0.18,Acu-Link.com,2013-02-23 08:16:00,
2013-02-23 03:31:00,39.4,38.9,29.90,NE,45,2.7,-999.0,98,-99.99,,,0.19,Acu-Link.com,2013-02-23 08:31:00,
2013-02-23 03:46:00,39.4,38.9,29.88,NNW,337,0.0,-999.0,98,-99.99,,,0.22,Acu-Link.com,2013-02-23 08:46:00,
2013-02-23 04:02:00,39.2,38.7,29.88,SW,225,0.0,-999.0,98,-99.99,,,0.25,Acu-Link.com,2013-02-23 09:02:00,
2013-02-23 04:20:00,39.2,38.7,29.88,West,270,0.0,-999.0,98,-99.99,,,0.25,Acu-Link.com,2013-02-23 09:20:00,
2013-02-23 04:36:00,39.2,38.7,29.88,North,0,0.0,-999.0,98,-99.99,,,0.28,Acu-Link.com,2013-02-23 09:36:00,
2013-02-23 04:51:00,39.2,38.7,29.86,East,90,2.7,-999.0,98,-99.99,,,0.29,Acu-Link.com,2013-02-23 09:51:00,
2013-02-23 05:06:00,39.2,38.7,29.83,NW,315,1.1,-999.0,98,-99.99,,,0.29,Acu-Link.com,2013-02-23 10:06:00,
2013-02-23 05:21:00,39.2,38.7,29.86,West,270,0.0,-999.0,98,-99.99,,,0.30,Acu-Link.com,2013-02-23 10:21:00,
2013-02-23 05:36:00,39.2,38.7,29.85,NE,45,1.7,-999.0,98,-99.99,,,0.35,Acu-Link.com,2013-02-23 10:36:00,
2013-02-23 05:51:00,39.2,38.7,29.84,ENE,67,1.7,-999.0,98,-99.99,,,0.36,Acu-Link.com,2013-02-23 10:51:00,
2013-02-23 06:07:00,39.2,38.7,29.84,ESE,112,1.1,-999.0,98,-99.99,,,0.37,Acu-Link.com,2013-02-23 11:07:00,
2013-02-23 06:22:00,39.0,38.5,29.83,SE,135,2.7,-999.0,98,-99.99,,,0.39,Acu-Link.com,2013-02-23 11:22:00,
2013-02-23 06:37:00,39.0,38.5,29.84,West,270,0.0,-999.0,98,-99.99,,,0.39,Acu-Link.com,2013-02-23 11:37:00,
2013-02-23 06:52:00,39.2,38.7,29.86,WNW,292,0.0,-999.0,98,-99.99,,,0.40,Acu-Link.com,2013-02-23 11:52:00,
2013-02-23 07:07:00,39.2,38.7,29.84,SSW,202,1.7,-999.0,98,-99.99,,,0.40,Acu-Link.com,2013-02-23 12:07:00,
2013-02-23 07:22:00,39.2,38.7,29.85,ENE,67,1.1,-999.0,98,-99.99,,,0.40,Acu-Link.com,2013-02-23 12:22:00,
2013-02-23 07:37:00,39.2,38.7,29.86,NNW,337,0.0,-999.0,98,-99.99,,,0.40,Acu-Link.com,2013-02-23 12:37:00,
2013-02-23 07:53:00,39.2,38.7,29.86,SW,225,0.0,-999.0,98,-99.99,,,0.42,Acu-Link.com,2013-02-23 12:53:00,
2013-02-23 08:08:00,39.4,38.9,29.86,NNE,22,0.0,-999.0,98,-99.99,,,0.44,Acu-Link.com,2013-02-23 13:08:00,
2013-02-23 08:23:00,39.6,39.1,29.87,West,270,0.0,-999.0,98,-99.99,,,0.45,Acu-Link.com,2013-02-23 13:23:00,
2013-02-23 08:38:00,39.7,39.2,29.88,East,90,2.2,-999.0,98,-99.99,,,0.45,Acu-Link.com,2013-02-23 13:38:00,
2013-02-23 08:53:00,39.7,39.2,29.88,ESE,112,0.0,-999.0,98,-99.99,,,0.46,Acu-Link.com,2013-02-23 13:53:00,
2013-02-23 09:08:00,39.9,39.4,29.88,NE,45,0.0,-999.0,98,-99.99,,,0.49,Acu-Link.com,2013-02-23 14:08:00,
2013-02-23 09:23:00,40.3,39.8,29.87,SSE,157,0.0,-999.0,98,-99.99,,,0.51,Acu-Link.com,2013-02-23 14:23:00,
2013-02-23 09:38:00,40.6,40.1,29.86,NNE,22,0.0,-999.0,98,-99.99,,,0.52,Acu-Link.com,2013-02-23 14:38:00,
2013-02-23 09:53:00,40.8,40.3,29.85,ENE,67,1.7,-999.0,98,-99.99,,,0.52,Acu-Link.com,2013-02-23 14:53:00,
2013-02-23 10:09:00,41.0,40.5,29.85,NE,45,2.7,-999.0,98,-99.99,,,0.52,Acu-Link.com,2013-02-23 15:09:00,
2013-02-23 10:24:00,41.0,40.5,29.84,SE,135,1.7,-999.0,98,-99.99,,,0.52,Acu-Link.com,2013-02-23 15:24:00,
2013-02-23 10:39:00,41.9,41.4,29.85,WNW,292,2.2,-999.0,98,-99.99,,,0.52,Acu-Link.com,2013-02-23 15:39:00,
2013-02-23 10:54:00,42.6,42.1,29.84,WSW,247,0.0,-999.0,98,-99.99,,,0.52,Acu-Link.com,2013-02-23 15:54:00,
2013-02-23 11:10:00,42.8,42.3,29.87,East,90,1.7,-999.0,98,-99.99,,,0.52,Acu-Link.com,2013-02-23 16:10:00,
2013-02-23 11:25:00,42.4,41.9,29.86,East,90,2.7,-999.0,98,-99.99,,,0.52,Acu-Link.com,2013-02-23 16:25:00,
2013-02-23 11:40:00,42.6,42.1,29.86,East,90,2.7,-999.0,98,-99.99,,,0.52,Acu-Link.com,2013-02-23 16:40:00,
2013-02-23 11:55:00,42.6,42.1,29.86,SE,135,2.2,-999.0,98,-99.99,,,0.52,Acu-Link.com,2013-02-23 16:55:00,
2013-02-23 12:10:00,43.0,42.5,29.84,NNE,22,2.7,-999.0,98,-99.99,,,0.52,Acu-Link.com,2013-02-23 17:10:00,
2013-02-23 12:25:00,43.5,43.0,29.83,ENE,67,2.2,-999.0,98,-99.99,,,0.52,Acu-Link.com,2013-02-23 17:25:00,
2013-02-23 12:40:00,44.1,43.6,29.83,South,180,1.7,-999.0,98,-99.99,,,0.52,Acu-Link.com,2013-02-23 17:40:00,
2013-02-23 12:55:00,44.2,43.7,29.82,ESE,112,1.7,-999.0,98,-99.99,,,0.52,Acu-Link.com,2013-02-23 17:55:00,
2013-02-23 13:10:00,44.4,43.9,29.82,ENE,67,1.7,-999.0,98,-99.99,,,0.52,Acu-Link.com,2013-02-23 18:10:00,
2013-02-23 13:26:00,45.0,44.5,29.82,NE,45,1.7,-999.0,98,-99.99,,,0.52,Acu-Link.com,2013-02-23 18:26:00,
2013-02-23 13:41:00,45.3,44.8,29.82,West,270,0.0,-999.0,98,-99.99,,,0.52,Acu-Link.com,2013-02-23 18:41:00,
2013-02-23 13:56:00,45.5,45.0,29.81,WSW,247,1.1,-999.0,98,-99.99,,,0.52,Acu-Link.com,2013-02-23 18:56:00,
2013-02-23 14:11:00,45.7,45.2,29.82,South,180,0.0,-999.0,98,-99.99,,,0.52,Acu-Link.com,2013-02-23 19:11:00,
2013-02-23 14:26:00,45.5,45.0,29.80,South,180,0.0,-999.0,98,-99.99,,,0.52,Acu-Link.com,2013-02-23 19:26:00,
2013-02-23 14:41:00,45.5,45.0,29.81,WSW,247,0.0,-999.0,98,-99.99,,,0.52,Acu-Link.com,2013-02-23 19:41:00,
2013-02-23 14:56:00,45.7,45.2,29.80,NE,45,1.7,-999.0,98,-99.99,,,0.52,Acu-Link.com,2013-02-23 19:56:00,
2013-02-23 15:11:00,45.7,45.2,29.80,WSW,247,0.0,-999.0,98,-99.99,,,0.52,Acu-Link.com,2013-02-23 20:11:00,
2013-02-23 15:26:00,46.2,45.7,29.79,ESE,112,2.2,-999.0,98,-99.99,,,0.52,Acu-Link.com,2013-02-23 20:26:00,
2013-02-23 15:42:00,46.0,45.5,29.79,NE,45,1.7,-999.0,98,-99.99,,,0.52,Acu-Link.com,2013-02-23 20:42:00,
2013-02-23 15:57:00,46.4,45.9,29.79,ESE,112,0.0,-999.0,98,-99.99,,,0.52,Acu-Link.com,2013-02-23 20:57:00,
2013-02-23 16:12:00,46.4,45.9,29.78,ENE,67,1.7,-999.0,98,-99.99,,,0.52,Acu-Link.com,2013-02-23 21:12:00,
2013-02-23 16:27:00,46.8,46.3,29.78,West,270,0.0,-999.0,98,-99.99,,,0.52,Acu-Link.com,2013-02-23 21:27:00,
2013-02-23 16:42:00,46.6,46.1,29.76,ESE,112,0.0,-999.0,98,-99.99,,,0.52,Acu-Link.com,2013-02-23 21:42:00,
2013-02-23 16:57:00,46.8,46.3,29.75,NNE,22,1.1,-999.0,98,-99.99,,,0.52,Acu-Link.com,2013-02-23 21:57:00,
2013-02-23 17:12:00,46.8,46.3,29.74,South,180,0.0,-999.0,98,-99.99,,,0.52,Acu-Link.com,2013-02-23 22:12:00,
2013-02-23 17:28:00,46.8,46.3,29.73,SSW,202,0.0,-999.0,98,-99.99,,,0.52,Acu-Link.com,2013-02-23 22:28:00,
2013-02-23 17:43:00,46.4,45.9,29.72,South,180,0.0,-999.0,98,-99.99,,,0.52,Acu-Link.com,2013-02-23 22:43:00,
2013-02-23 17:58:00,45.9,45.4,29.72,NNW,337,0.0,-999.0,98,-99.99,,,0.52,Acu-Link.com,2013-02-23 22:58:00,
2013-02-23 18:13:00,45.5,45.0,29.72,NNW,337,0.0,-999.0,98,-99.99,,,0.52,Acu-Link.com,2013-02-23 23:13:00,
2013-02-23 18:28:00,45.1,44.6,29.72,ESE,112,0.0,-999.0,98,-99.99,,,0.52,Acu-Link.com,2013-02-23 23:28:00,
2013-02-23 18:43:00,45.0,44.5,29.73,SW,225,0.0,-999.0,98,-99.99,,,0.52,Acu-Link.com,2013-02-23 23:43:00,
2013-02-23 18:58:00,44.8,44.3,29.73,ESE,112,0.0,-999.0,98,-99.99,,,0.52,Acu-Link.com,2013-02-23 23:58:00,
2013-02-23 19:13:00,44.6,44.1,29.74,East,90,0.0,-999.0,98,-99.99,,,0.52,Acu-Link.com,2013-02-24 00:13:00,
2013-02-23 19:28:00,44.6,44.1,29.74,WNW,292,0.0,-999.0,98,-99.99,,,0.52,Acu-Link.com,2013-02-24 00:28:00,
2013-02-23 19:44:00,44.6,44.1,29.75,SW,225,0.0,-999.0,98,-99.99,,,0.52,Acu-Link.com,2013-02-24 00:44:00,
2013-02-23 19:59:00,44.6,44.1,29.75,West,270,0.0,-999.0,98,-99.99,,,0.52,Acu-Link.com,2013-02-24 00:59:00,
2013-02-23 20:14:00,44.6,44.1,29.75,West,270,0.0,-999.0,98,-99.99,,,0.52,Acu-Link.com,2013-02-24 01:14:00,
2013-02-23 20:29:00,44.6,44.1,29.75,West,270,0.0,-999.0,98,-99.99,,,0.52,Acu-Link.com,2013-02-24 01:29:00,
2013-02-23 20:44:00,44.8,44.3,29.74,ENE,67,0.0,-999.0,98,-99.99,,,0.52,Acu-Link.com,2013-02-24 01:44:00,
2013-02-23 20:59:00,44.8,44.3,29.74,NE,45,0.0,-999.0,98,-99.99,,,0.52,Acu-Link.com,2013-02-24 01:59:00,
2013-02-23 21:14:00,44.8,44.3,29.74,WSW,247,0.0,-999.0,98,-99.99,,,0.52,Acu-Link.com,2013-02-24 02:14:00,
2013-02-23 21:29:00,44.8,44.3,29.76,SW,225,0.0,-999.0,98,-99.99,,,0.52,Acu-Link.com,2013-02-24 02:29:00,
2013-02-23 21:44:00,44.8,44.3,29.75,SSW,202,0.0,-999.0,98,-99.99,,,0.52,Acu-Link.com,2013-02-24 02:44:00,
2013-02-23 22:00:00,44.8,44.3,29.75,WSW,247,0.0,-999.0,98,-99.99,,,0.52,Acu-Link.com,2013-02-24 03:00:00,
2013-02-23 22:15:00,44.8,44.3,29.75,West,270,0.0,-999.0,98,-99.99,,,0.52,Acu-Link.com,2013-02-24 03:15:00,
2013-02-23 22:30:00,44.8,44.3,29.76,WSW,247,0.0,-999.0,98,-99.99,,,0.52,Acu-Link.com,2013-02-24 03:30:00,
2013-02-23 22:45:00,44.8,44.3,29.76,SW,225,0.0,-999.0,98,-99.99,,,0.52,Acu-Link.com,2013-02-24 03:45:00,
2013-02-23 23:00:00,44.8,44.3,29.75,SW,225,0.0,-999.0,98,-99.99,,,0.52,Acu-Link.com,2013-02-24 04:00:00,
2013-02-23 23:15:00,44.8,44.3,29.76,SSW,202,0.0,-999.0,98,-99.99,,,0.52,Acu-Link.com,2013-02-24 04:15:00,
2013-02-23 23:30:00,44.8,44.3,29.76,West,270,0.0,-999.0,98,-99.99,,,0.52,Acu-Link.com,2013-02-24 04:30:00,
2013-02-23 23:45:00,44.8,44.3,29.76,West,270,0.0,-999.0,98,-99.99,,,0.52,Acu-Link.com,2013-02-24 04:45:00,